Hubbells Corner, Indiana
Current Conditions -  °F | °C
As of 3:15 PM on Monday 24 Nov 2014 (Local Time) from KI67 Reporting Station
Overcast Overcast  
Wind Chill: 35°   Ceiling: 2800
Heat Index: 43°   Visibility: 10mi
Dew Point: 34°   Wind: 16mph
Humidity: 70%   Direction: 230°SW
Pressure: 29.69"   Gusts: 26mph
Location:  39.2635°N, 85.1027°W
Report Text: KI67 242015Z AUTO 23014G23KT 10SM OVC028 06/01 A2969 RMK AO1
Loading
Personal Weather Stations






























Interactive Weather Map New forecast layout! Learn more

10-Day Weather Forecast

Advertisements
Track Severe Weather on mobile